sensor_id;sensor_type;location;lat;lon;timestamp;pressure;altitude;pressure_sealevel;temperature;humidity
75089;BME280;63673;49.928;8.150;2023-03-25T00:00:23;982.48;;;5.47;100
75089;BME280;63673;49.928;8.150;2023-03-25T00:01:25;982.44;;;5.45;100
75089;BME280;63673;49.928;8.150;2023-03-25T00:02:27;982.49;;;5.43;100
75089;BME280;63673;49.928;8.150;2023-03-25T00:03:29;982.52;;;5.41;100
75089;BME280;63673;49.928;8.150;2023-03-25T00:04:30;982.54;;;5.38;100
75089;BME280;63673;49.928;8.150;2023-03-25T00:05:32;982.59;;;5.35;100
75089;BME280;63673;49.928;8.150;2023-03-25T00:06:34;982.57;;;5.32;100
75089;BME280;63673;49.928;8.150;2023-03-25T00:07:35;982.48;;;5.29;100
75089;BME280;63673;49.928;8.150;2023-03-25T00:08:37;982.59;;;5.26;100
75089;BME280;63673;49.928;8.150;2023-03-25T00:09:39;982.64;;;5.23;100
75089;BME280;63673;49.928;8.150;2023-03-25T00:10:41;982.69;;;5.2;100
75089;BME280;63673;49.928;8.150;2023-03-25T00:11:42;982.72;;;5.18;100
75089;BME280;63673;49.928;8.150;2023-03-25T00:12:44;982.69;;;5.15;100
75089;BME280;63673;49.928;8.150;2023-03-25T00:13:47;982.66;;;5.11;100
75089;BME280;63673;49.928;8.150;2023-03-25T00:14:48;982.67;;;5.08;100
75089;BME280;63673;49.928;8.150;2023-03-25T00:15:49;982.66;;;5.07;100
75089;BME280;63673;49.928;8.150;2023-03-25T00:16:51;982.62;;;5.04;100
75089;BME280;63673;49.928;8.150;2023-03-25T00:17:53;982.67;;;5.02;100
75089;BME280;63673;49.928;8.150;2023-03-25T00:18:54;982.67;;;4.99;100
75089;BME280;63673;49.928;8.150;2023-03-25T00:19:56;982.66;;;4.97;100
75089;BME280;63673;49.928;8.150;2023-03-25T00:20:58;982.66;;;4.97;100
75089;BME280;63673;49.928;8.150;2023-03-25T00:22:00;982.65;;;4.94;100
75089;BME280;63673;49.928;8.150;2023-03-25T00:23:01;982.71;;;4.94;100
75089;BME280;63673;49.928;8.150;2023-03-25T00:24:03;982.61;;;4.92;100
75089;BME280;63673;49.928;8.150;2023-03-25T00:25:06;982.65;;;4.91;100
75089;BME280;63673;49.928;8.150;2023-03-25T00:26:07;982.64;;;4.9;100
75089;BME280;63673;49.928;8.150;2023-03-25T00:27:08;982.71;;;4.89;100
75089;BME280;63673;49.928;8.150;2023-03-25T00:28:10;982.76;;;4.89;100
75089;BME280;63673;49.928;8.150;2023-03-25T00:29:12;982.76;;;4.87;100
75089;BME280;63673;49.928;8.150;2023-03-25T00:30:14;982.79;;;4.87;100
75089;BME280;63673;49.928;8.150;2023-03-25T00:31:15;982.78;;;4.87;100
75089;BME280;63673;49.928;8.150;2023-03-25T00:32:17;982.8;;;4.87;100
75089;BME280;63673;49.928;8.150;2023-03-25T00:33:19;982.74;;;4.86;100
75089;BME280;63673;49.928;8.150;2023-03-25T00:34:20;982.76;;;4.87;100
75089;BME280;63673;49.928;8.150;2023-03-25T00:35:22;982.75;;;4.86;100
75089;BME280;63673;49.928;8.150;2023-03-25T00:36:24;982.8;;;4.86;100
75089;BME280;63673;49.928;8.150;2023-03-25T00:37:26;982.75;;;4.87;100
75089;BME280;63673;49.928;8.150;2023-03-25T00:38:28;982.72;;;4.88;100
75089;BME280;63673;49.928;8.150;2023-03-25T00:39:29;982.64;;;4.88;100
75089;BME280;63673;49.928;8.150;2023-03-25T00:40:31;982.7;;;4.9;100
75089;BME280;63673;49.928;8.150;2023-03-25T00:41:33;982.69;;;4.9;100
75089;BME280;63673;49.928;8.150;2023-03-25T00:42:34;982.7;;;4.9;100
75089;BME280;63673;49.928;8.150;2023-03-25T00:43:36;982.71;;;4.93;100
75089;BME280;63673;49.928;8.150;2023-03-25T00:44:38;982.66;;;4.94;100
75089;BME280;63673;49.928;8.150;2023-03-25T00:45:40;982.65;;;4.95;100
75089;BME280;63673;49.928;8.150;2023-03-25T00:46:41;982.61;;;4.96;100
75089;BME280;63673;49.928;8.150;2023-03-25T00:47:43;982.67;;;4.98;100
75089;BME280;63673;49.928;8.150;2023-03-25T00:48:45;982.6;;;5;100
75089;BME280;63673;49.928;8.150;2023-03-25T00:49:47;982.62;;;5.01;100
75089;BME280;63673;49.928;8.150;2023-03-25T00:50:48;982.67;;;5.04;100
75089;BME280;63673;49.928;8.150;2023-03-25T00:51:50;982.64;;;5.07;100
75089;BME280;63673;49.928;8.150;2023-03-25T00:52:52;982.58;;;5.09;100
75089;BME280;63673;49.928;8.150;2023-03-25T00:53:54;982.52;;;5.11;100
75089;BME280;63673;49.928;8.150;2023-03-25T00:54:55;982.55;;;5.14;100
75089;BME280;63673;49.928;8.150;2023-03-25T00:55:57;982.57;;;5.15;100
75089;BME280;63673;49.928;8.150;2023-03-25T00:56:59;982.55;;;5.16;100
75089;BME280;63673;49.928;8.150;2023-03-25T00:58:00;982.52;;;5.18;100
75089;BME280;63673;49.928;8.150;2023-03-25T00:59:02;982.58;;;5.18;100
75089;BME280;63673;49.928;8.150;2023-03-25T01:00:04;982.55;;;5.18;100
75089;BME280;63673;49.928;8.150;2023-03-25T01:01:07;982.43;;;5.19;100
75089;BME280;63673;49.928;8.150;2023-03-25T01:02:07;982.45;;;5.18;100
75089;BME280;63673;49.928;8.150;2023-03-25T01:03:09;982.49;;;5.19;100
75089;BME280;63673;49.928;8.150;2023-03-25T01:04:11;982.55;;;5.18;100
75089;BME280;63673;49.928;8.150;2023-03-25T01:05:13;982.56;;;5.18;100
75089;BME280;63673;49.928;8.150;2023-03-25T01:06:15;982.54;;;5.17;100
75089;BME280;63673;49.928;8.150;2023-03-25T01:07:16;982.55;;;5.17;100
75089;BME280;63673;49.928;8.150;2023-03-25T01:08:18;982.58;;;5.16;100
75089;BME280;63673;49.928;8.150;2023-03-25T01:09:20;982.57;;;5.16;100
75089;BME280;63673;49.928;8.150;2023-03-25T01:10:22;982.54;;;5.16;100
75089;BME280;63673;49.928;8.150;2023-03-25T01:11:24;982.49;;;5.16;100
75089;BME280;63673;49.928;8.150;2023-03-25T01:12:25;982.48;;;5.17;100
75089;BME280;63673;49.928;8.150;2023-03-25T01:13:26;982.47;;;5.2;100
75089;BME280;63673;49.928;8.150;2023-03-25T01:14:28;982.47;;;5.23;100
75089;BME280;63673;49.928;8.150;2023-03-25T01:15:30;982.5;;;5.24;100
75089;BME280;63673;49.928;8.150;2023-03-25T01:16:32;982.47;;;5.28;100
75089;BME280;63673;49.928;8.150;2023-03-25T01:17:33;982.49;;;5.31;100
75089;BME280;63673;49.928;8.150;2023-03-25T01:18:35;982.46;;;5.35;100
75089;BME280;63673;49.928;8.150;2023-03-25T01:19:37;982.46;;;5.38;100
75089;BME280;63673;49.928;8.150;2023-03-25T01:20:38;982.47;;;5.42;100
75089;BME280;63673;49.928;8.150;2023-03-25T01:21:40;982.43;;;5.47;100
75089;BME280;63673;49.928;8.150;2023-03-25T01:22:42;982.45;;;5.5;100
75089;BME280;63673;49.928;8.150;2023-03-25T01:23:44;982.44;;;5.54;100
75089;BME280;63673;49.928;8.150;2023-03-25T01:24:45;982.45;;;5.57;100
75089;BME280;63673;49.928;8.150;2023-03-25T01:25:47;982.45;;;5.61;100
75089;BME280;63673;49.928;8.150;2023-03-25T01:26:49;982.43;;;5.64;100
75089;BME280;63673;49.928;8.150;2023-03-25T01:27:51;982.43;;;5.67;100
75089;BME280;63673;49.928;8.150;2023-03-25T01:28:52;982.44;;;5.7;100
75089;BME280;63673;49.928;8.150;2023-03-25T01:29:54;982.47;;;5.72;100
75089;BME280;63673;49.928;8.150;2023-03-25T01:30:58;982.41;;;5.75;100
75089;BME280;63673;49.928;8.150;2023-03-25T01:31:58;982.41;;;5.77;100
75089;BME280;63673;49.928;8.150;2023-03-25T01:32:59;982.35;;;5.78;100
75089;BME280;63673;49.928;8.150;2023-03-25T01:34:01;982.34;;;5.81;100
75089;BME280;63673;49.928;8.150;2023-03-25T01:35:03;982.37;;;5.84;100
75089;BME280;63673;49.928;8.150;2023-03-25T01:36:05;982.34;;;5.86;100
75089;BME280;63673;49.928;8.150;2023-03-25T01:37:06;982.36;;;5.88;100
75089;BME280;63673;49.928;8.150;2023-03-25T01:38:08;982.32;;;5.92;100
75089;BME280;63673;49.928;8.150;2023-03-25T01:39:10;982.34;;;5.96;100
75089;BME280;63673;49.928;8.150;2023-03-25T01:40:15;982.4;;;5.97;100
75089;BME280;63673;49.928;8.150;2023-03-25T01:41:13;982.3;;;5.99;100
75089;BME280;63673;49.928;8.150;2023-03-25T01:42:15;982.38;;;6.02;100
75089;BME280;63673;49.928;8.150;2023-03-25T01:43:17;982.33;;;6.03;100
75089;BME280;63673;49.928;8.150;2023-03-25T01:45:21;982.35;;;6.06;100
75089;BME280;63673;49.928;8.150;2023-03-25T01:45:24;982.35;;;6.04;100
75089;BME280;63673;49.928;8.150;2023-03-25T01:46:22;982.38;;;6.08;100
75089;BME280;63673;49.928;8.150;2023-03-25T01:47:24;982.38;;;6.1;100
75089;BME280;63673;49.928;8.150;2023-03-25T01:48:26;982.35;;;6.11;100
75089;BME280;63673;49.928;8.150;2023-03-25T01:49:28;982.37;;;6.12;100
75089;BME280;63673;49.928;8.150;2023-03-25T01:50:29;982.34;;;6.14;100
75089;BME280;63673;49.928;8.150;2023-03-25T01:51:31;982.38;;;6.15;100
75089;BME280;63673;49.928;8.150;2023-03-25T01:52:32;982.29;;;6.16;100
75089;BME280;63673;49.928;8.150;2023-03-25T01:53:34;982.34;;;6.17;100
75089;BME280;63673;49.928;8.150;2023-03-25T01:54:36;982.35;;;6.18;100
75089;BME280;63673;49.928;8.150;2023-03-25T01:55:37;982.36;;;6.19;100
75089;BME280;63673;49.928;8.150;2023-03-25T01:56:39;982.27;;;6.2;100
75089;BME280;63673;49.928;8.150;2023-03-25T01:57:41;982.29;;;6.21;100
75089;BME280;63673;49.928;8.150;2023-03-25T01:58:43;982.29;;;6.21;100
75089;BME280;63673;49.928;8.150;2023-03-25T01:59:44;982.31;;;6.22;100
75089;BME280;63673;49.928;8.150;2023-03-25T02:00:46;982.28;;;6.23;100
75089;BME280;63673;49.928;8.150;2023-03-25T02:01:48;982.19;;;6.24;100
75089;BME280;63673;49.928;8.150;2023-03-25T02:02:50;982.22;;;6.24;100
75089;BME280;63673;49.928;8.150;2023-03-25T02:03:51;982.17;;;6.25;100
75089;BME280;63673;49.928;8.150;2023-03-25T02:04:54;982.18;;;6.25;100
75089;BME280;63673;49.928;8.150;2023-03-25T02:05:55;982.13;;;6.26;100
75089;BME280;63673;49.928;8.150;2023-03-25T02:06:56;982.08;;;6.26;100
75089;BME280;63673;49.928;8.150;2023-03-25T02:07:58;982.05;;;6.27;100
75089;BME280;63673;49.928;8.150;2023-03-25T02:09:01;982.03;;;6.26;100
75089;BME280;63673;49.928;8.150;2023-03-25T02:10:03;982.04;;;6.27;100
75089;BME280;63673;49.928;8.150;2023-03-25T02:11:04;981.92;;;6.27;100
75089;BME280;63673;49.928;8.150;2023-03-25T02:12:05;981.95;;;6.26;100
75089;BME280;63673;49.928;8.150;2023-03-25T02:13:07;981.93;;;6.26;100
75089;BME280;63673;49.928;8.150;2023-03-25T02:14:09;981.89;;;6.24;100
75089;BME280;63673;49.928;8.150;2023-03-25T02:15:10;981.92;;;6.24;100
75089;BME280;63673;49.928;8.150;2023-03-25T02:16:16;981.88;;;6.23;100
75089;BME280;63673;49.928;8.150;2023-03-25T02:17:15;981.91;;;6.23;100
75089;BME280;63673;49.928;8.150;2023-03-25T02:18:19;981.84;;;6.21;100
75089;BME280;63673;49.928;8.150;2023-03-25T02:19:24;981.83;;;6.2;100
75089;BME280;63673;49.928;8.150;2023-03-25T02:20:23;981.8;;;6.19;100
75089;BME280;63673;49.928;8.150;2023-03-25T02:21:26;981.79;;;6.19;100
75089;BME280;63673;49.928;8.150;2023-03-25T02:22:25;981.74;;;6.16;100
75089;BME280;63673;49.928;8.150;2023-03-25T02:23:32;981.71;;;6.14;100
75089;BME280;63673;49.928;8.150;2023-03-25T02:24:38;981.77;;;6.13;100
75089;BME280;63673;49.928;8.150;2023-03-25T02:25:31;981.75;;;6.13;100
75089;BME280;63673;49.928;8.150;2023-03-25T02:26:34;981.72;;;6.12;100
75089;BME280;63673;49.928;8.150;2023-03-25T02:27:40;981.79;;;6.12;100
75089;BME280;63673;49.928;8.150;2023-03-25T02:28:33;981.73;;;6.12;100
75089;BME280;63673;49.928;8.150;2023-03-25T02:29:37;981.79;;;6.11;100
75089;BME280;63673;49.928;8.150;2023-03-25T02:30:40;981.73;;;6.11;100
75089;BME280;63673;49.928;8.150;2023-03-25T02:31:42;981.79;;;6.11;100
75089;BME280;63673;49.928;8.150;2023-03-25T02:32:47;981.75;;;6.11;100
75089;BME280;63673;49.928;8.150;2023-03-25T02:33:46;981.69;;;6.11;100
75089;BME280;63673;49.928;8.150;2023-03-25T02:34:47;981.66;;;6.1;100
75089;BME280;63673;49.928;8.150;2023-03-25T02:35:49;981.63;;;6.08;100
75089;BME280;63673;49.928;8.150;2023-03-25T02:36:53;981.61;;;6.07;100
75089;BME280;63673;49.928;8.150;2023-03-25T02:37:53;981.62;;;6.06;100
75089;BME280;63673;49.928;8.150;2023-03-25T02:38:50;981.63;;;6.04;100
75089;BME280;63673;49.928;8.150;2023-03-25T02:39:53;981.61;;;6.03;100
75089;BME280;63673;49.928;8.150;2023-03-25T02:40:54;981.65;;;6.03;100
75089;BME280;63673;49.928;8.150;2023-03-25T02:41:56;981.63;;;6.02;100
75089;BME280;63673;49.928;8.150;2023-03-25T02:42:59;981.61;;;6.02;100
75089;BME280;63673;49.928;8.150;2023-03-25T02:44:00;981.61;;;6.01;100
75089;BME280;63673;49.928;8.150;2023-03-25T02:45:01;981.62;;;6;100
75089;BME280;63673;49.928;8.150;2023-03-25T02:46:03;981.64;;;5.98;100
75089;BME280;63673;49.928;8.150;2023-03-25T02:47:05;981.7;;;5.99;100
75089;BME280;63673;49.928;8.150;2023-03-25T02:48:06;981.66;;;5.99;100
75089;BME280;63673;49.928;8.150;2023-03-25T02:49:08;981.67;;;6;100
75089;BME280;63673;49.928;8.150;2023-03-25T02:50:10;981.69;;;6.01;100
75089;BME280;63673;49.928;8.150;2023-03-25T02:51:12;981.71;;;6.01;100
75089;BME280;63673;49.928;8.150;2023-03-25T02:52:13;981.71;;;6.01;100
75089;BME280;63673;49.928;8.150;2023-03-25T02:53:16;981.73;;;6.02;100
75089;BME280;63673;49.928;8.150;2023-03-25T02:54:16;981.72;;;6.03;100
75089;BME280;63673;49.928;8.150;2023-03-25T02:55:18;981.71;;;6.02;100
75089;BME280;63673;49.928;8.150;2023-03-25T02:56:20;981.68;;;6.02;100
75089;BME280;63673;49.928;8.150;2023-03-25T02:57:21;981.65;;;6.03;100
75089;BME280;63673;49.928;8.150;2023-03-25T02:58:23;981.61;;;6.03;100
75089;BME280;63673;49.928;8.150;2023-03-25T02:59:25;981.56;;;6.03;100
75089;BME280;63673;49.928;8.150;2023-03-25T03:00:27;981.57;;;6.03;100
75089;BME280;63673;49.928;8.150;2023-03-25T03:01:28;981.61;;;6.02;100
75089;BME280;63673;49.928;8.150;2023-03-25T03:02:30;981.62;;;6.02;100
75089;BME280;63673;49.928;8.150;2023-03-25T03:03:32;981.58;;;6.02;100
75089;BME280;63673;49.928;8.150;2023-03-25T03:04:43;981.65;;;6.02;100
75089;BME280;63673;49.928;8.150;2023-03-25T03:05:36;981.6;;;6.01;100
75089;BME280;63673;49.928;8.150;2023-03-25T03:06:39;981.61;;;6;100
75089;BME280;63673;49.928;8.150;2023-03-25T03:07:39;981.61;;;5.99;100
75089;BME280;63673;49.928;8.150;2023-03-25T03:08:44;981.63;;;5.99;100
75089;BME280;63673;49.928;8.150;2023-03-25T03:09:43;981.62;;;5.98;100
75089;BME280;63673;49.928;8.150;2023-03-25T03:10:46;981.65;;;5.98;100
75089;BME280;63673;49.928;8.150;2023-03-25T03:11:47;981.62;;;5.98;100
75089;BME280;63673;49.928;8.150;2023-03-25T03:12:50;981.69;;;5.95;100
75089;BME280;63673;49.928;8.150;2023-03-25T03:13:57;981.66;;;5.95;100
75089;BME280;63673;49.928;8.150;2023-03-25T03:14:55;981.65;;;5.95;100
75089;BME280;63673;49.928;8.150;2023-03-25T03:15:54;981.67;;;5.94;100
75089;BME280;63673;49.928;8.150;2023-03-25T03:16:56;981.59;;;5.92;100
75089;BME280;63673;49.928;8.150;2023-03-25T03:18:00;981.49;;;5.92;100
75089;BME280;63673;49.928;8.150;2023-03-25T03:19:01;981.55;;;5.92;100
75089;BME280;63673;49.928;8.150;2023-03-25T03:20:00;981.59;;;5.9;100
75089;BME280;63673;49.928;8.150;2023-03-25T03:21:03;981.59;;;5.9;100
75089;BME280;63673;49.928;8.150;2023-03-25T03:22:07;981.55;;;5.9;100
75089;BME280;63673;49.928;8.150;2023-03-25T03:23:07;981.56;;;5.89;100
75089;BME280;63673;49.928;8.150;2023-03-25T03:24:09;981.64;;;5.9;100
75089;BME280;63673;49.928;8.150;2023-03-25T03:25:10;981.61;;;5.89;100
75089;BME280;63673;49.928;8.150;2023-03-25T03:26:10;981.62;;;5.9;100
75089;BME280;63673;49.928;8.150;2023-03-25T03:27:12;981.6;;;5.87;100
75089;BME280;63673;49.928;8.150;2023-03-25T03:28:14;981.63;;;5.87;100
75089;BME280;63673;49.928;8.150;2023-03-25T03:29:15;981.65;;;5.86;100
75089;BME280;63673;49.928;8.150;2023-03-25T03:30:18;981.64;;;5.85;100
75089;BME280;63673;49.928;8.150;2023-03-25T03:31:19;981.67;;;5.83;100
75089;BME280;63673;49.928;8.150;2023-03-25T03:32:22;981.68;;;5.81;100
75089;BME280;63673;49.928;8.150;2023-03-25T03:33:23;981.74;;;5.8;100
75089;BME280;63673;49.928;8.150;2023-03-25T03:34:25;981.73;;;5.78;100
75089;BME280;63673;49.928;8.150;2023-03-25T03:35:26;981.78;;;5.78;100
75089;BME280;63673;49.928;8.150;2023-03-25T03:36:28;981.74;;;5.76;100
75089;BME280;63673;49.928;8.150;2023-03-25T03:37:31;981.8;;;5.74;100
75089;BME280;63673;49.928;8.150;2023-03-25T03:38:32;981.79;;;5.72;100
75089;BME280;63673;49.928;8.150;2023-03-25T03:39:33;981.78;;;5.69;100
75089;BME280;63673;49.928;8.150;2023-03-25T03:40:34;981.83;;;5.68;100
75089;BME280;63673;49.928;8.150;2023-03-25T03:41:37;981.82;;;5.67;100
75089;BME280;63673;49.928;8.150;2023-03-25T03:42:38;981.84;;;5.67;100
75089;BME280;63673;49.928;8.150;2023-03-25T03:43:40;981.8;;;5.67;100
75089;BME280;63673;49.928;8.150;2023-03-25T03:44:42;981.79;;;5.67;100
75089;BME280;63673;49.928;8.150;2023-03-25T03:45:44;981.83;;;5.66;100
75089;BME280;63673;49.928;8.150;2023-03-25T03:46:46;981.87;;;5.65;100
75089;BME280;63673;49.928;8.150;2023-03-25T03:47:48;981.83;;;5.64;100
75089;BME280;63673;49.928;8.150;2023-03-25T03:48:48;981.82;;;5.63;100
75089;BME280;63673;49.928;8.150;2023-03-25T03:49:51;981.85;;;5.62;100
75089;BME280;63673;49.928;8.150;2023-03-25T03:50:52;981.88;;;5.62;100
75089;BME280;63673;49.928;8.150;2023-03-25T03:51:55;981.87;;;5.61;100
75089;BME280;63673;49.928;8.150;2023-03-25T03:52:57;981.84;;;5.61;100
75089;BME280;63673;49.928;8.150;2023-03-25T03:53:57;981.9;;;5.59;100
75089;BME280;63673;49.928;8.150;2023-03-25T03:54:59;981.97;;;5.59;100
75089;BME280;63673;49.928;8.150;2023-03-25T03:56:01;981.98;;;5.58;100
75089;BME280;63673;49.928;8.150;2023-03-25T03:57:03;982;;;5.56;100
75089;BME280;63673;49.928;8.150;2023-03-25T03:58:05;982.07;;;5.55;100
75089;BME280;63673;49.928;8.150;2023-03-25T03:59:07;982.09;;;5.53;100
75089;BME280;63673;49.928;8.150;2023-03-25T04:00:08;982.12;;;5.53;100
75089;BME280;63673;49.928;8.150;2023-03-25T04:01:09;982.14;;;5.52;100
75089;BME280;63673;49.928;8.150;2023-03-25T04:02:12;982.14;;;5.51;100
75089;BME280;63673;49.928;8.150;2023-03-25T04:03:13;982.25;;;5.52;100
75089;BME280;63673;49.928;8.150;2023-03-25T04:04:14;982.24;;;5.51;100
75089;BME280;63673;49.928;8.150;2023-03-25T04:05:16;982.24;;;5.5;100
75089;BME280;63673;49.928;8.150;2023-03-25T04:06:18;982.22;;;5.49;100
75089;BME280;63673;49.928;8.150;2023-03-25T04:07:20;982.33;;;5.5;100
75089;BME280;63673;49.928;8.150;2023-03-25T04:08:24;982.3;;;5.49;100
75089;BME280;63673;49.928;8.150;2023-03-25T04:09:24;982.25;;;5.5;100
75089;BME280;63673;49.928;8.150;2023-03-25T04:10:26;982.3;;;5.51;100
75089;BME280;63673;49.928;8.150;2023-03-25T04:11:27;982.36;;;5.52;100
75089;BME280;63673;49.928;8.150;2023-03-25T04:12:28;982.37;;;5.53;100
75089;BME280;63673;49.928;8.150;2023-03-25T04:13:31;982.39;;;5.55;100
75089;BME280;63673;49.928;8.150;2023-03-25T04:14:31;982.41;;;5.55;100
75089;BME280;63673;49.928;8.150;2023-03-25T04:15:33;982.41;;;5.58;100
75089;BME280;63673;49.928;8.150;2023-03-25T04:16:35;982.41;;;5.6;100
75089;BME280;63673;49.928;8.150;2023-03-25T04:17:37;982.4;;;5.6;100
75089;BME280;63673;49.928;8.150;2023-03-25T04:18:38;982.37;;;5.6;100
75089;BME280;63673;49.928;8.150;2023-03-25T04:19:40;982.37;;;5.59;100
75089;BME280;63673;49.928;8.150;2023-03-25T04:20:42;982.39;;;5.61;100
75089;BME280;63673;49.928;8.150;2023-03-25T04:21:43;982.43;;;5.61;100
75089;BME280;63673;49.928;8.150;2023-03-25T04:22:45;982.46;;;5.61;100
75089;BME280;63673;49.928;8.150;2023-03-25T04:23:47;982.46;;;5.61;100
75089;BME280;63673;49.928;8.150;2023-03-25T04:24:49;982.41;;;5.6;100
75089;BME280;63673;49.928;8.150;2023-03-25T04:25:51;982.34;;;5.6;100
75089;BME280;63673;49.928;8.150;2023-03-25T04:26:52;982.45;;;5.61;100
75089;BME280;63673;49.928;8.150;2023-03-25T04:27:54;982.42;;;5.61;100
75089;BME280;63673;49.928;8.150;2023-03-25T04:28:56;982.45;;;5.64;100
75089;BME280;63673;49.928;8.150;2023-03-25T04:29:57;982.48;;;5.63;100
75089;BME280;63673;49.928;8.150;2023-03-25T04:30:59;982.5;;;5.65;100
75089;BME280;63673;49.928;8.150;2023-03-25T04:32:01;982.51;;;5.65;100
75089;BME280;63673;49.928;8.150;2023-03-25T04:33:03;982.55;;;5.67;100
75089;BME280;63673;49.928;8.150;2023-03-25T04:34:04;982.58;;;5.69;100
75089;BME280;63673;49.928;8.150;2023-03-25T04:35:06;982.59;;;5.69;100
75089;BME280;63673;49.928;8.150;2023-03-25T04:36:08;982.57;;;5.7;100
75089;BME280;63673;49.928;8.150;2023-03-25T04:37:09;982.59;;;5.73;100
75089;BME280;63673;49.928;8.150;2023-03-25T04:38:11;982.55;;;5.72;100
75089;BME280;63673;49.928;8.150;2023-03-25T04:39:13;982.54;;;5.72;100
75089;BME280;63673;49.928;8.150;2023-03-25T04:40:15;982.55;;;5.74;100
75089;BME280;63673;49.928;8.150;2023-03-25T04:41:16;982.6;;;5.75;100
75089;BME280;63673;49.928;8.150;2023-03-25T04:42:18;982.62;;;5.76;100
75089;BME280;63673;49.928;8.150;2023-03-25T04:43:20;982.59;;;5.77;100
75089;BME280;63673;49.928;8.150;2023-03-25T04:44:22;982.55;;;5.77;100
75089;BME280;63673;49.928;8.150;2023-03-25T04:45:23;982.62;;;5.8;100
75089;BME280;63673;49.928;8.150;2023-03-25T04:46:25;982.61;;;5.8;100
75089;BME280;63673;49.928;8.150;2023-03-25T04:47:27;982.61;;;5.8;100
75089;BME280;63673;49.928;8.150;2023-03-25T04:48:29;982.61;;;5.83;100
75089;BME280;63673;49.928;8.150;2023-03-25T04:49:30;982.58;;;5.82;100
75089;BME280;63673;49.928;8.150;2023-03-25T04:50:32;982.6;;;5.82;100
75089;BME280;63673;49.928;8.150;2023-03-25T04:51:34;982.56;;;5.83;100
75089;BME280;63673;49.928;8.150;2023-03-25T04:52:35;982.55;;;5.84;100
75089;BME280;63673;49.928;8.150;2023-03-25T04:53:37;982.54;;;5.86;100
75089;BME280;63673;49.928;8.150;2023-03-25T04:54:39;982.56;;;5.86;100
75089;BME280;63673;49.928;8.150;2023-03-25T04:55:41;982.63;;;5.9;100
75089;BME280;63673;49.928;8.150;2023-03-25T04:56:42;982.62;;;5.9;100
75089;BME280;63673;49.928;8.150;2023-03-25T04:57:44;982.54;;;5.89;100
75089;BME280;63673;49.928;8.150;2023-03-25T04:58:46;982.58;;;5.92;100
75089;BME280;63673;49.928;8.150;2023-03-25T04:59:48;982.6;;;5.92;100
75089;BME280;63673;49.928;8.150;2023-03-25T05:00:50;982.57;;;5.94;100
75089;BME280;63673;49.928;8.150;2023-03-25T05:01:51;982.61;;;5.94;100
75089;BME280;63673;49.928;8.150;2023-03-25T05:02:53;982.59;;;5.95;100
75089;BME280;63673;49.928;8.150;2023-03-25T05:03:56;982.64;;;5.96;100
75089;BME280;63673;49.928;8.150;2023-03-25T05:04:56;982.65;;;5.97;100
75089;BME280;63673;49.928;8.150;2023-03-25T05:05:58;982.66;;;5.97;100
75089;BME280;63673;49.928;8.150;2023-03-25T05:07:00;982.64;;;5.99;100
75089;BME280;63673;49.928;8.150;2023-03-25T05:08:02;982.66;;;6.01;100
75089;BME280;63673;49.928;8.150;2023-03-25T05:09:04;982.65;;;6.03;100
75089;BME280;63673;49.928;8.150;2023-03-25T05:10:05;982.65;;;6.03;100
75089;BME280;63673;49.928;8.150;2023-03-25T05:11:07;982.68;;;6.06;100
75089;BME280;63673;49.928;8.150;2023-03-25T05:12:08;982.66;;;6.06;100
75089;BME280;63673;49.928;8.150;2023-03-25T05:13:10;982.64;;;6.08;100
75089;BME280;63673;49.928;8.150;2023-03-25T05:14:13;982.7;;;6.09;100
75089;BME280;63673;49.928;8.150;2023-03-25T05:15:14;982.65;;;6.11;100
75089;BME280;63673;49.928;8.150;2023-03-25T05:16:15;982.7;;;6.12;100
75089;BME280;63673;49.928;8.150;2023-03-25T05:17:17;982.65;;;6.12;100
75089;BME280;63673;49.928;8.150;2023-03-25T05:18:19;982.64;;;6.13;100
75089;BME280;63673;49.928;8.150;2023-03-25T05:19:21;982.7;;;6.14;100
75089;BME280;63673;49.928;8.150;2023-03-25T05:20:22;982.72;;;6.14;100
75089;BME280;63673;49.928;8.150;2023-03-25T05:21:24;982.72;;;6.15;100
75089;BME280;63673;49.928;8.150;2023-03-25T05:22:26;982.71;;;6.16;100
75089;BME280;63673;49.928;8.150;2023-03-25T05:23:27;982.7;;;6.18;100
75089;BME280;63673;49.928;8.150;2023-03-25T05:24:29;982.74;;;6.19;100
75089;BME280;63673;49.928;8.150;2023-03-25T05:25:31;982.7;;;6.2;100
75089;BME280;63673;49.928;8.150;2023-03-25T05:26:33;982.79;;;6.21;100
75089;BME280;63673;49.928;8.150;2023-03-25T05:27:35;982.78;;;6.21;100
75089;BME280;63673;49.928;8.150;2023-03-25T05:28:36;982.8;;;6.2;100
75089;BME280;63673;49.928;8.150;2023-03-25T05:29:38;982.79;;;6.22;100
75089;BME280;63673;49.928;8.150;2023-03-25T05:30:40;982.81;;;6.24;100
75089;BME280;63673;49.928;8.150;2023-03-25T05:31:42;982.88;;;6.25;100
75089;BME280;63673;49.928;8.150;2023-03-25T05:32:43;982.85;;;6.25;100
75089;BME280;63673;49.928;8.150;2023-03-25T05:33:45;982.92;;;6.26;100
75089;BME280;63673;49.928;8.150;2023-03-25T05:34:47;982.94;;;6.25;100
75089;BME280;63673;49.928;8.150;2023-03-25T05:35:48;982.92;;;6.26;100
75089;BME280;63673;49.928;8.150;2023-03-25T05:36:50;982.91;;;6.27;100
75089;BME280;63673;49.928;8.150;2023-03-25T05:37:52;982.91;;;6.26;100
75089;BME280;63673;49.928;8.150;2023-03-25T05:38:54;982.89;;;6.25;100
75089;BME280;63673;49.928;8.150;2023-03-25T05:39:55;982.91;;;6.26;100
75089;BME280;63673;49.928;8.150;2023-03-25T05:40:57;982.91;;;6.24;100
75089;BME280;63673;49.928;8.150;2023-03-25T05:41:59;982.95;;;6.24;100
75089;BME280;63673;49.928;8.150;2023-03-25T05:43:01;982.98;;;6.24;100
75089;BME280;63673;49.928;8.150;2023-03-25T05:44:02;982.98;;;6.24;100
75089;BME280;63673;49.928;8.150;2023-03-25T05:45:04;982.97;;;6.23;100
75089;BME280;63673;49.928;8.150;2023-03-25T05:46:06;982.97;;;6.2;100
75089;BME280;63673;49.928;8.150;2023-03-25T05:47:07;983.03;;;6.2;100
75089;BME280;63673;49.928;8.150;2023-03-25T05:48:09;982.99;;;6.19;100
75089;BME280;63673;49.928;8.150;2023-03-25T05:49:11;982.94;;;6.19;100
75089;BME280;63673;49.928;8.150;2023-03-25T05:50:13;982.99;;;6.17;100
75089;BME280;63673;49.928;8.150;2023-03-25T05:51:15;982.95;;;6.15;100